sensor_id;sensor_type;location;lat;lon;timestamp;P1;durP1;ratioP1;P2;durP2;ratioP2
51184;SDS011;37248;59.350;18.050;2022-12-07T00:01:39;4.57;;;2.08;;
51184;SDS011;37248;59.350;18.050;2022-12-07T00:04:05;5.28;;;2.00;;
51184;SDS011;37248;59.350;18.050;2022-12-07T00:06:32;4.25;;;1.98;;
51184;SDS011;37248;59.350;18.050;2022-12-07T00:08:57;4.67;;;2.00;;
51184;SDS011;37248;59.350;18.050;2022-12-07T00:11:23;5.97;;;1.97;;
51184;SDS011;37248;59.350;18.050;2022-12-07T00:13:55;5.57;;;2.10;;
51184;SDS011;37248;59.350;18.050;2022-12-07T00:16:21;4.50;;;2.10;;
51184;SDS011;37248;59.350;18.050;2022-12-07T00:18:47;6.18;;;1.98;;
51184;SDS011;37248;59.350;18.050;2022-12-07T00:21:23;5.27;;;2.30;;
51184;SDS011;37248;59.350;18.050;2022-12-07T00:23:49;6.45;;;1.77;;
51184;SDS011;37248;59.350;18.050;2022-12-07T00:26:18;4.25;;;1.60;;
51184;SDS011;37248;59.350;18.050;2022-12-07T00:28:45;3.33;;;1.75;;
51184;SDS011;37248;59.350;18.050;2022-12-07T00:31:11;4.60;;;1.90;;
51184;SDS011;37248;59.350;18.050;2022-12-07T00:33:37;6.10;;;1.80;;
51184;SDS011;37248;59.350;18.050;2022-12-07T00:36:04;5.23;;;1.70;;
51184;SDS011;37248;59.350;18.050;2022-12-07T00:38:31;4.82;;;1.45;;
51184;SDS011;37248;59.350;18.050;2022-12-07T00:41:00;4.55;;;1.80;;
51184;SDS011;37248;59.350;18.050;2022-12-07T00:43:26;4.45;;;2.08;;
51184;SDS011;37248;59.350;18.050;2022-12-07T00:45:52;3.55;;;1.95;;
51184;SDS011;37248;59.350;18.050;2022-12-07T00:48:17;6.70;;;1.70;;
51184;SDS011;37248;59.350;18.050;2022-12-07T00:50:43;5.37;;;2.10;;
51184;SDS011;37248;59.350;18.050;2022-12-07T00:53:08;2.87;;;1.80;;
51184;SDS011;37248;59.350;18.050;2022-12-07T00:55:34;3.78;;;1.95;;
51184;SDS011;37248;59.350;18.050;2022-12-07T00:57:59;3.28;;;1.65;;
51184;SDS011;37248;59.350;18.050;2022-12-07T01:00:24;3.23;;;1.80;;
51184;SDS011;37248;59.350;18.050;2022-12-07T01:02:49;4.73;;;1.70;;
51184;SDS011;37248;59.350;18.050;2022-12-07T01:05:15;4.03;;;1.50;;
51184;SDS011;37248;59.350;18.050;2022-12-07T01:07:40;5.03;;;1.70;;
51184;SDS011;37248;59.350;18.050;2022-12-07T01:10:05;3.10;;;1.70;;
51184;SDS011;37248;59.350;18.050;2022-12-07T01:12:31;2.40;;;1.30;;
51184;SDS011;37248;59.350;18.050;2022-12-07T01:14:56;3.60;;;2.07;;
51184;SDS011;37248;59.350;18.050;2022-12-07T01:17:21;4.53;;;1.63;;
51184;SDS011;37248;59.350;18.050;2022-12-07T01:19:47;4.53;;;1.50;;
51184;SDS011;37248;59.350;18.050;2022-12-07T01:22:12;3.83;;;1.93;;
51184;SDS011;37248;59.350;18.050;2022-12-07T01:24:37;5.10;;;1.63;;
51184;SDS011;37248;59.350;18.050;2022-12-07T01:27:02;4.18;;;1.58;;
51184;SDS011;37248;59.350;18.050;2022-12-07T01:29:28;5.00;;;1.57;;
51184;SDS011;37248;59.350;18.050;2022-12-07T01:31:53;4.65;;;1.85;;
51184;SDS011;37248;59.350;18.050;2022-12-07T01:34:18;3.13;;;1.90;;
51184;SDS011;37248;59.350;18.050;2022-12-07T01:36:43;3.90;;;1.60;;
51184;SDS011;37248;59.350;18.050;2022-12-07T01:39:09;3.30;;;1.80;;
51184;SDS011;37248;59.350;18.050;2022-12-07T01:41:36;4.60;;;1.70;;
51184;SDS011;37248;59.350;18.050;2022-12-07T01:46:32;3.45;;;1.70;;
51184;SDS011;37248;59.350;18.050;2022-12-07T01:48:58;3.77;;;1.33;;
51184;SDS011;37248;59.350;18.050;2022-12-07T01:51:23;3.92;;;1.75;;
51184;SDS011;37248;59.350;18.050;2022-12-07T01:53:48;3.40;;;1.73;;
51184;SDS011;37248;59.350;18.050;2022-12-07T01:56:17;4.27;;;1.50;;
51184;SDS011;37248;59.350;18.050;2022-12-07T01:58:44;3.80;;;1.88;;
51184;SDS011;37248;59.350;18.050;2022-12-07T02:01:09;5.50;;;1.90;;
51184;SDS011;37248;59.350;18.050;2022-12-07T02:03:36;3.67;;;1.67;;
51184;SDS011;37248;59.350;18.050;2022-12-07T02:06:03;5.13;;;1.70;;
51184;SDS011;37248;59.350;18.050;2022-12-07T02:08:29;3.20;;;1.50;;
51184;SDS011;37248;59.350;18.050;2022-12-07T02:10:54;2.80;;;1.63;;
51184;SDS011;37248;59.350;18.050;2022-12-07T02:13:21;4.30;;;1.80;;
51184;SDS011;37248;59.350;18.050;2022-12-07T02:21:11;4.00;;;1.53;;
51184;SDS011;37248;59.350;18.050;2022-12-07T02:26:46;5.43;;;1.95;;
51184;SDS011;37248;59.350;18.050;2022-12-07T02:31:32;4.55;;;1.70;;
51184;SDS011;37248;59.350;18.050;2022-12-07T02:34:01;3.67;;;1.77;;
51184;SDS011;37248;59.350;18.050;2022-12-07T02:36:30;5.50;;;1.90;;
51184;SDS011;37248;59.350;18.050;2022-12-07T02:41:25;5.00;;;2.00;;
51184;SDS011;37248;59.350;18.050;2022-12-07T02:43:53;5.43;;;1.45;;
51184;SDS011;37248;59.350;18.050;2022-12-07T02:46:39;4.82;;;2.03;;
51184;SDS011;37248;59.350;18.050;2022-12-07T02:49:05;4.18;;;1.83;;
51184;SDS011;37248;59.350;18.050;2022-12-07T02:51:32;5.00;;;1.77;;
51184;SDS011;37248;59.350;18.050;2022-12-07T02:53:58;3.42;;;1.80;;
51184;SDS011;37248;59.350;18.050;2022-12-07T02:56:30;4.32;;;1.95;;
51184;SDS011;37248;59.350;18.050;2022-12-07T03:10:28;3.88;;;1.80;;
51184;SDS011;37248;59.350;18.050;2022-12-07T03:15:47;5.25;;;1.73;;
51184;SDS011;37248;59.350;18.050;2022-12-07T03:18:15;5.63;;;1.75;;
51184;SDS011;37248;59.350;18.050;2022-12-07T03:20:41;4.88;;;1.73;;
51184;SDS011;37248;59.350;18.050;2022-12-07T03:23:08;4.60;;;1.83;;
51184;SDS011;37248;59.350;18.050;2022-12-07T03:25:35;5.05;;;1.63;;
51184;SDS011;37248;59.350;18.050;2022-12-07T03:28:04;4.17;;;1.60;;
51184;SDS011;37248;59.350;18.050;2022-12-07T03:30:37;3.03;;;1.52;;
51184;SDS011;37248;59.350;18.050;2022-12-07T03:33:07;4.53;;;1.88;;
51184;SDS011;37248;59.350;18.050;2022-12-07T03:35:38;3.40;;;1.80;;
51184;SDS011;37248;59.350;18.050;2022-12-07T03:40:48;4.50;;;1.47;;
51184;SDS011;37248;59.350;18.050;2022-12-07T03:43:16;5.43;;;1.85;;
51184;SDS011;37248;59.350;18.050;2022-12-07T03:45:44;4.78;;;1.98;;
51184;SDS011;37248;59.350;18.050;2022-12-07T03:50:40;10.73;;;1.83;;
51184;SDS011;37248;59.350;18.050;2022-12-07T03:53:12;5.05;;;1.73;;
51184;SDS011;37248;59.350;18.050;2022-12-07T03:55:39;4.38;;;2.00;;
51184;SDS011;37248;59.350;18.050;2022-12-07T03:58:07;3.88;;;1.63;;
51184;SDS011;37248;59.350;18.050;2022-12-07T04:00:34;3.90;;;1.70;;
51184;SDS011;37248;59.350;18.050;2022-12-07T04:02:59;3.03;;;1.63;;
51184;SDS011;37248;59.350;18.050;2022-12-07T04:05:25;5.67;;;1.90;;
51184;SDS011;37248;59.350;18.050;2022-12-07T04:07:50;4.70;;;1.50;;
51184;SDS011;37248;59.350;18.050;2022-12-07T04:10:15;2.50;;;1.40;;
51184;SDS011;37248;59.350;18.050;2022-12-07T04:12:40;2.73;;;1.50;;
51184;SDS011;37248;59.350;18.050;2022-12-07T04:15:06;2.17;;;1.70;;
51184;SDS011;37248;59.350;18.050;2022-12-07T04:17:31;4.53;;;2.00;;
51184;SDS011;37248;59.350;18.050;2022-12-07T04:19:57;4.87;;;2.07;;
51184;SDS011;37248;59.350;18.050;2022-12-07T04:22:22;3.13;;;1.70;;
51184;SDS011;37248;59.350;18.050;2022-12-07T04:24:47;4.03;;;1.50;;
51184;SDS011;37248;59.350;18.050;2022-12-07T04:27:13;3.17;;;1.60;;
51184;SDS011;37248;59.350;18.050;2022-12-07T04:29:38;4.28;;;1.73;;
51184;SDS011;37248;59.350;18.050;2022-12-07T04:32:03;7.33;;;1.80;;
51184;SDS011;37248;59.350;18.050;2022-12-07T04:34:29;3.40;;;1.57;;
51184;SDS011;37248;59.350;18.050;2022-12-07T04:36:54;3.27;;;1.43;;
51184;SDS011;37248;59.350;18.050;2022-12-07T04:39:21;3.17;;;1.63;;
51184;SDS011;37248;59.350;18.050;2022-12-07T04:41:46;3.47;;;1.90;;
51184;SDS011;37248;59.350;18.050;2022-12-07T04:44:12;2.93;;;1.60;;
51184;SDS011;37248;59.350;18.050;2022-12-07T04:46:39;3.95;;;1.98;;
51184;SDS011;37248;59.350;18.050;2022-12-07T04:49:04;4.50;;;1.57;;
51184;SDS011;37248;59.350;18.050;2022-12-07T04:51:29;2.93;;;1.77;;
51184;SDS011;37248;59.350;18.050;2022-12-07T04:53:55;2.87;;;1.70;;
51184;SDS011;37248;59.350;18.050;2022-12-07T04:56:21;2.60;;;1.63;;
51184;SDS011;37248;59.350;18.050;2022-12-07T04:58:46;4.47;;;1.60;;
51184;SDS011;37248;59.350;18.050;2022-12-07T05:01:12;4.13;;;2.00;;
51184;SDS011;37248;59.350;18.050;2022-12-07T05:03:37;5.17;;;1.93;;
51184;SDS011;37248;59.350;18.050;2022-12-07T05:06:03;4.47;;;1.73;;
51184;SDS011;37248;59.350;18.050;2022-12-07T05:08:28;3.33;;;1.88;;
51184;SDS011;37248;59.350;18.050;2022-12-07T05:10:53;6.07;;;1.93;;
51184;SDS011;37248;59.350;18.050;2022-12-07T05:13:19;5.88;;;1.88;;
51184;SDS011;37248;59.350;18.050;2022-12-07T05:15:44;5.33;;;1.73;;
51184;SDS011;37248;59.350;18.050;2022-12-07T05:18:10;2.70;;;1.65;;
51184;SDS011;37248;59.350;18.050;2022-12-07T05:20:37;4.43;;;2.03;;
51184;SDS011;37248;59.350;18.050;2022-12-07T05:23:02;5.50;;;2.50;;
51184;SDS011;37248;59.350;18.050;2022-12-07T05:25:28;3.23;;;2.30;;
51184;SDS011;37248;59.350;18.050;2022-12-07T05:27:54;3.33;;;2.30;;
51184;SDS011;37248;59.350;18.050;2022-12-07T05:30:19;7.38;;;2.70;;
51184;SDS011;37248;59.350;18.050;2022-12-07T05:32:45;8.83;;;2.47;;
51184;SDS011;37248;59.350;18.050;2022-12-07T05:35:10;6.33;;;2.70;;
51184;SDS011;37248;59.350;18.050;2022-12-07T05:37:35;5.33;;;2.70;;
51184;SDS011;37248;59.350;18.050;2022-12-07T05:40:00;12.00;;;3.00;;
51184;SDS011;37248;59.350;18.050;2022-12-07T05:42:25;14.40;;;3.67;;
51184;SDS011;37248;59.350;18.050;2022-12-07T05:44:51;12.60;;;3.53;;
51184;SDS011;37248;59.350;18.050;2022-12-07T05:47:16;11.87;;;2.97;;
51184;SDS011;37248;59.350;18.050;2022-12-07T05:49:41;12.60;;;3.15;;
51184;SDS011;37248;59.350;18.050;2022-12-07T05:52:07;9.20;;;3.17;;
51184;SDS011;37248;59.350;18.050;2022-12-07T05:54:32;7.97;;;2.87;;
51184;SDS011;37248;59.350;18.050;2022-12-07T05:56:58;11.63;;;3.33;;
51184;SDS011;37248;59.350;18.050;2022-12-07T05:59:23;9.27;;;3.03;;
51184;SDS011;37248;59.350;18.050;2022-12-07T06:01:49;5.47;;;2.63;;
51184;SDS011;37248;59.350;18.050;2022-12-07T06:04:14;4.60;;;2.77;;
51184;SDS011;37248;59.350;18.050;2022-12-07T06:06:40;8.50;;;3.00;;
51184;SDS011;37248;59.350;18.050;2022-12-07T06:09:05;4.28;;;2.83;;
51184;SDS011;37248;59.350;18.050;2022-12-07T06:11:30;6.20;;;3.20;;
51184;SDS011;37248;59.350;18.050;2022-12-07T06:14:14;5.82;;;2.90;;
51184;SDS011;37248;59.350;18.050;2022-12-07T06:16:39;8.93;;;3.10;;
51184;SDS011;37248;59.350;18.050;2022-12-07T06:19:05;6.17;;;2.90;;
51184;SDS011;37248;59.350;18.050;2022-12-07T06:21:30;11.10;;;3.10;;
51184;SDS011;37248;59.350;18.050;2022-12-07T06:23:55;10.33;;;3.60;;
51184;SDS011;37248;59.350;18.050;2022-12-07T06:26:21;5.23;;;3.00;;
51184;SDS011;37248;59.350;18.050;2022-12-07T06:28:46;9.47;;;3.20;;
51184;SDS011;37248;59.350;18.050;2022-12-07T06:31:11;9.63;;;3.07;;
51184;SDS011;37248;59.350;18.050;2022-12-07T06:33:37;8.57;;;3.20;;
51184;SDS011;37248;59.350;18.050;2022-12-07T06:36:02;6.07;;;2.80;;
51184;SDS011;37248;59.350;18.050;2022-12-07T06:38:27;5.50;;;2.93;;
51184;SDS011;37248;59.350;18.050;2022-12-07T06:40:52;4.97;;;2.73;;
51184;SDS011;37248;59.350;18.050;2022-12-07T06:43:18;4.13;;;2.70;;
51184;SDS011;37248;59.350;18.050;2022-12-07T06:45:43;7.20;;;3.50;;
51184;SDS011;37248;59.350;18.050;2022-12-07T06:48:08;5.30;;;2.57;;
51184;SDS011;37248;59.350;18.050;2022-12-07T06:50:33;6.33;;;2.80;;
51184;SDS011;37248;59.350;18.050;2022-12-07T06:52:59;9.43;;;2.87;;
51184;SDS011;37248;59.350;18.050;2022-12-07T06:55:24;4.77;;;2.67;;
51184;SDS011;37248;59.350;18.050;2022-12-07T06:57:49;7.20;;;3.37;;
51184;SDS011;37248;59.350;18.050;2022-12-07T07:00:14;6.77;;;3.10;;
51184;SDS011;37248;59.350;18.050;2022-12-07T07:02:40;5.83;;;2.87;;
51184;SDS011;37248;59.350;18.050;2022-12-07T07:05:05;6.53;;;2.60;;
51184;SDS011;37248;59.350;18.050;2022-12-07T07:07:30;4.63;;;2.40;;
51184;SDS011;37248;59.350;18.050;2022-12-07T07:09:56;3.87;;;2.77;;
51184;SDS011;37248;59.350;18.050;2022-12-07T07:12:21;6.10;;;2.70;;
51184;SDS011;37248;59.350;18.050;2022-12-07T07:14:46;6.80;;;2.60;;
51184;SDS011;37248;59.350;18.050;2022-12-07T07:17:12;6.57;;;2.63;;
51184;SDS011;37248;59.350;18.050;2022-12-07T07:19:37;9.40;;;2.90;;
51184;SDS011;37248;59.350;18.050;2022-12-07T07:22:03;6.70;;;2.83;;
51184;SDS011;37248;59.350;18.050;2022-12-07T07:24:28;7.95;;;2.60;;
51184;SDS011;37248;59.350;18.050;2022-12-07T07:26:54;5.60;;;2.58;;
51184;SDS011;37248;59.350;18.050;2022-12-07T07:29:19;5.33;;;2.40;;
51184;SDS011;37248;59.350;18.050;2022-12-07T07:31:44;3.57;;;2.63;;
51184;SDS011;37248;59.350;18.050;2022-12-07T07:34:09;4.73;;;2.60;;
51184;SDS011;37248;59.350;18.050;2022-12-07T07:36:35;11.32;;;2.78;;
51184;SDS011;37248;59.350;18.050;2022-12-07T07:39:00;18.20;;;3.40;;
51184;SDS011;37248;59.350;18.050;2022-12-07T07:41:25;64.17;;;8.23;;
51184;SDS011;37248;59.350;18.050;2022-12-07T07:43:50;49.37;;;5.73;;
51184;SDS011;37248;59.350;18.050;2022-12-07T07:46:16;42.28;;;6.45;;
51184;SDS011;37248;59.350;18.050;2022-12-07T07:48:41;29.43;;;4.63;;
51184;SDS011;37248;59.350;18.050;2022-12-07T07:51:06;20.17;;;3.70;;
51184;SDS011;37248;59.350;18.050;2022-12-07T07:53:32;24.17;;;3.77;;
51184;SDS011;37248;59.350;18.050;2022-12-07T07:55:57;23.43;;;3.77;;
51184;SDS011;37248;59.350;18.050;2022-12-07T07:58:23;12.90;;;3.50;;
51184;SDS011;37248;59.350;18.050;2022-12-07T08:00:48;18.70;;;3.13;;
51184;SDS011;37248;59.350;18.050;2022-12-07T08:03:13;17.23;;;3.27;;
51184;SDS011;37248;59.350;18.050;2022-12-07T08:05:39;12.03;;;3.20;;
51184;SDS011;37248;59.350;18.050;2022-12-07T08:08:04;8.10;;;3.33;;
51184;SDS011;37248;59.350;18.050;2022-12-07T08:10:29;11.88;;;3.00;;
51184;SDS011;37248;59.350;18.050;2022-12-07T08:12:57;13.98;;;3.28;;
51184;SDS011;37248;59.350;18.050;2022-12-07T08:15:42;11.63;;;2.90;;
51184;SDS011;37248;59.350;18.050;2022-12-07T08:18:07;13.77;;;3.15;;
51184;SDS011;37248;59.350;18.050;2022-12-07T08:20:33;9.03;;;2.50;;
51184;SDS011;37248;59.350;18.050;2022-12-07T08:22:59;19.20;;;3.42;;
51184;SDS011;37248;59.350;18.050;2022-12-07T08:25:24;6.53;;;2.53;;
51184;SDS011;37248;59.350;18.050;2022-12-07T08:27:50;10.57;;;2.60;;
51184;SDS011;37248;59.350;18.050;2022-12-07T08:30:16;11.80;;;2.53;;
51184;SDS011;37248;59.350;18.050;2022-12-07T08:32:41;11.15;;;2.35;;
51184;SDS011;37248;59.350;18.050;2022-12-07T08:35:07;9.27;;;2.90;;
51184;SDS011;37248;59.350;18.050;2022-12-07T08:37:32;12.33;;;2.60;;
51184;SDS011;37248;59.350;18.050;2022-12-07T08:39:58;8.50;;;2.47;;
51184;SDS011;37248;59.350;18.050;2022-12-07T08:42:23;8.70;;;2.80;;
51184;SDS011;37248;59.350;18.050;2022-12-07T08:44:52;11.27;;;2.60;;
51184;SDS011;37248;59.350;18.050;2022-12-07T08:47:17;7.43;;;2.80;;
51184;SDS011;37248;59.350;18.050;2022-12-07T08:49:43;6.73;;;2.40;;
51184;SDS011;37248;59.350;18.050;2022-12-07T08:52:10;9.50;;;2.38;;
51184;SDS011;37248;59.350;18.050;2022-12-07T08:54:36;7.30;;;2.43;;
51184;SDS011;37248;59.350;18.050;2022-12-07T08:57:02;6.85;;;2.22;;
51184;SDS011;37248;59.350;18.050;2022-12-07T08:59:28;8.60;;;2.33;;
51184;SDS011;37248;59.350;18.050;2022-12-07T09:01:53;5.32;;;2.15;;
51184;SDS011;37248;59.350;18.050;2022-12-07T09:04:18;7.57;;;2.30;;
51184;SDS011;37248;59.350;18.050;2022-12-07T09:06:45;6.53;;;2.40;;
51184;SDS011;37248;59.350;18.050;2022-12-07T09:09:10;6.13;;;2.43;;
51184;SDS011;37248;59.350;18.050;2022-12-07T09:11:36;8.50;;;2.40;;
51184;SDS011;37248;59.350;18.050;2022-12-07T09:14:01;5.03;;;1.97;;
51184;SDS011;37248;59.350;18.050;2022-12-07T09:16:26;3.20;;;2.00;;
51184;SDS011;37248;59.350;18.050;2022-12-07T09:18:52;3.30;;;1.93;;
51184;SDS011;37248;59.350;18.050;2022-12-07T09:21:17;4.07;;;1.90;;
51184;SDS011;37248;59.350;18.050;2022-12-07T09:23:42;6.67;;;2.43;;
51184;SDS011;37248;59.350;18.050;2022-12-07T09:26:08;6.40;;;2.30;;
51184;SDS011;37248;59.350;18.050;2022-12-07T09:28:33;3.07;;;1.90;;
51184;SDS011;37248;59.350;18.050;2022-12-07T09:30:58;5.97;;;2.30;;
51184;SDS011;37248;59.350;18.050;2022-12-07T09:33:23;3.90;;;2.40;;
51184;SDS011;37248;59.350;18.050;2022-12-07T09:35:50;4.03;;;2.00;;
51184;SDS011;37248;59.350;18.050;2022-12-07T09:38:15;4.25;;;1.90;;
51184;SDS011;37248;59.350;18.050;2022-12-07T09:40:41;5.40;;;2.15;;
51184;SDS011;37248;59.350;18.050;2022-12-07T09:43:15;4.10;;;2.10;;
51184;SDS011;37248;59.350;18.050;2022-12-07T09:45:42;4.72;;;1.92;;
51184;SDS011;37248;59.350;18.050;2022-12-07T09:48:18;3.75;;;1.98;;
51184;SDS011;37248;59.350;18.050;2022-12-07T09:50:45;5.57;;;1.90;;
51184;SDS011;37248;59.350;18.050;2022-12-07T09:53:15;3.90;;;2.10;;
51184;SDS011;37248;59.350;18.050;2022-12-07T09:55:44;3.88;;;1.83;;
51184;SDS011;37248;59.350;18.050;2022-12-07T09:58:14;2.63;;;1.60;;
51184;SDS011;37248;59.350;18.050;2022-12-07T10:00:42;3.80;;;1.87;;
51184;SDS011;37248;59.350;18.050;2022-12-07T10:03:08;3.77;;;1.60;;
51184;SDS011;37248;59.350;18.050;2022-12-07T10:05:40;6.00;;;1.80;;
51184;SDS011;37248;59.350;18.050;2022-12-07T10:08:10;2.75;;;1.52;;
51184;SDS011;37248;59.350;18.050;2022-12-07T10:10:36;5.43;;;1.80;;
51184;SDS011;37248;59.350;18.050;2022-12-07T10:16:06;3.78;;;1.80;;
51184;SDS011;37248;59.350;18.050;2022-12-07T10:18:37;5.40;;;1.85;;
51184;SDS011;37248;59.350;18.050;2022-12-07T10:21:16;5.28;;;2.00;;
51184;SDS011;37248;59.350;18.050;2022-12-07T10:24:03;3.67;;;1.63;;
51184;SDS011;37248;59.350;18.050;2022-12-07T10:28:53;3.60;;;2.03;;
51184;SDS011;37248;59.350;18.050;2022-12-07T10:31:20;3.00;;;1.50;;
51184;SDS011;37248;59.350;18.050;2022-12-07T10:33:48;2.05;;;1.52;;
51184;SDS011;37248;59.350;18.050;2022-12-07T10:36:19;2.80;;;1.60;;
51184;SDS011;37248;59.350;18.050;2022-12-07T10:38:46;3.22;;;1.60;;
51184;SDS011;37248;59.350;18.050;2022-12-07T10:41:13;3.30;;;1.70;;
51184;SDS011;37248;59.350;18.050;2022-12-07T10:43:44;2.23;;;1.40;;
51184;SDS011;37248;59.350;18.050;2022-12-07T10:49:10;2.80;;;1.48;;
51184;SDS011;37248;59.350;18.050;2022-12-07T10:51:47;2.40;;;1.70;;
51184;SDS011;37248;59.350;18.050;2022-12-07T10:54:30;2.50;;;1.30;;
51184;SDS011;37248;59.350;18.050;2022-12-07T10:57:07;3.15;;;1.83;;
51184;SDS011;37248;59.350;18.050;2022-12-07T10:59:39;3.15;;;1.40;;
51184;SDS011;37248;59.350;18.050;2022-12-07T11:02:11;2.20;;;1.50;;
51184;SDS011;37248;59.350;18.050;2022-12-07T11:04:59;3.15;;;1.67;;
51184;SDS011;37248;59.350;18.050;2022-12-07T11:08:09;2.97;;;1.70;;
51184;SDS011;37248;59.350;18.050;2022-12-07T11:15:19;3.00;;;1.40;;
51184;SDS011;37248;59.350;18.050;2022-12-07T11:20:34;2.30;;;1.60;;
51184;SDS011;37248;59.350;18.050;2022-12-07T11:30:34;2.85;;;1.40;;
51184;SDS011;37248;59.350;18.050;2022-12-07T11:38:16;3.67;;;1.40;;
51184;SDS011;37248;59.350;18.050;2022-12-07T11:40:45;3.58;;;1.50;;
51184;SDS011;37248;59.350;18.050;2022-12-07T11:43:29;6.40;;;1.60;;
51184;SDS011;37248;59.350;18.050;2022-12-07T11:45:59;3.22;;;1.63;;
51184;SDS011;37248;59.350;18.050;2022-12-07T11:48:28;4.63;;;1.88;;
51184;SDS011;37248;59.350;18.050;2022-12-07T11:50:56;5.60;;;1.70;;
51184;SDS011;37248;59.350;18.050;2022-12-07T11:53:42;5.32;;;1.60;;
51184;SDS011;37248;59.350;18.050;2022-12-07T12:03:42;5.13;;;2.00;;
51184;SDS011;37248;59.350;18.050;2022-12-07T12:06:09;6.05;;;2.15;;
51184;SDS011;37248;59.350;18.050;2022-12-07T12:08:42;6.43;;;2.00;;
51184;SDS011;37248;59.350;18.050;2022-12-07T12:11:20;8.25;;;2.25;;
51184;SDS011;37248;59.350;18.050;2022-12-07T12:21:47;6.38;;;2.03;;
51184;SDS011;37248;59.350;18.050;2022-12-07T12:24:18;5.75;;;2.00;;
51184;SDS011;37248;59.350;18.050;2022-12-07T12:26:48;5.43;;;1.90;;
51184;SDS011;37248;59.350;18.050;2022-12-07T12:29:19;5.95;;;1.90;;
51184;SDS011;37248;59.350;18.050;2022-12-07T12:31:47;5.88;;;2.15;;
51184;SDS011;37248;59.350;18.050;2022-12-07T12:34:32;6.05;;;2.20;;
51184;SDS011;37248;59.350;18.050;2022-12-07T12:36:58;7.43;;;1.83;;
51184;SDS011;37248;59.350;18.050;2022-12-07T12:39:24;3.67;;;1.90;;
51184;SDS011;37248;59.350;18.050;2022-12-07T12:41:51;4.50;;;1.92;;
51184;SDS011;37248;59.350;18.050;2022-12-07T12:46:51;4.35;;;1.90;;
51184;SDS011;37248;59.350;18.050;2022-12-07T12:59:24;5.70;;;2.30;;
51184;SDS011;37248;59.350;18.050;2022-12-07T13:01:51;6.07;;;2.63;;
51184;SDS011;37248;59.350;18.050;2022-12-07T13:06:45;7.20;;;2.70;;
51184;SDS011;37248;59.350;18.050;2022-12-07T13:09:18;6.70;;;3.13;;
51184;SDS011;37248;59.350;18.050;2022-12-07T13:11:46;8.47;;;3.20;;
51184;SDS011;37248;59.350;18.050;2022-12-07T13:16:56;14.40;;;3.30;;
51184;SDS011;37248;59.350;18.050;2022-12-07T13:22:27;12.15;;;3.58;;
51184;SDS011;37248;59.350;18.050;2022-12-07T13:24:54;12.85;;;3.65;;
51184;SDS011;37248;59.350;18.050;2022-12-07T13:27:19;8.60;;;3.17;;
51184;SDS011;37248;59.350;18.050;2022-12-07T13:29:46;11.00;;;3.30;;
51184;SDS011;37248;59.350;18.050;2022-12-07T13:32:32;7.83;;;3.33;;
51184;SDS011;37248;59.350;18.050;2022-12-07T13:34:57;9.00;;;3.30;;
51184;SDS011;37248;59.350;18.050;2022-12-07T13:37:29;11.53;;;3.40;;
51184;SDS011;37248;59.350;18.050;2022-12-07T13:42:27;11.00;;;3.50;;
51184;SDS011;37248;59.350;18.050;2022-12-07T13:44:53;10.48;;;3.22;;
51184;SDS011;37248;59.350;18.050;2022-12-07T13:49:47;8.63;;;3.50;;
51184;SDS011;37248;59.350;18.050;2022-12-07T13:54:45;8.50;;;3.33;;
51184;SDS011;37248;59.350;18.050;2022-12-07T13:57:11;9.35;;;3.15;;
51184;SDS011;37248;59.350;18.050;2022-12-07T13:59:36;7.20;;;3.07;;
51184;SDS011;37248;59.350;18.050;2022-12-07T14:02:16;7.50;;;2.95;;
51184;SDS011;37248;59.350;18.050;2022-12-07T14:04:42;8.23;;;3.17;;
51184;SDS011;37248;59.350;18.050;2022-12-07T14:10:05;8.77;;;3.08;;
51184;SDS011;37248;59.350;18.050;2022-12-07T14:12:31;10.63;;;3.22;;
51184;SDS011;37248;59.350;18.050;2022-12-07T14:14:59;11.68;;;3.40;;
51184;SDS011;37248;59.350;18.050;2022-12-07T14:17:26;9.27;;;3.17;;
51184;SDS011;37248;59.350;18.050;2022-12-07T14:22:19;6.87;;;3.17;;
51184;SDS011;37248;59.350;18.050;2022-12-07T14:24:45;7.07;;;2.80;;
51184;SDS011;37248;59.350;18.050;2022-12-07T14:27:17;10.13;;;3.10;;
51184;SDS011;37248;59.350;18.050;2022-12-07T14:29:42;6.35;;;2.88;;
51184;SDS011;37248;59.350;18.050;2022-12-07T14:32:27;7.10;;;2.53;;
51184;SDS011;37248;59.350;18.050;2022-12-07T14:35:12;7.55;;;2.60;;
51184;SDS011;37248;59.350;18.050;2022-12-07T14:37:37;5.55;;;2.13;;
51184;SDS011;37248;59.350;18.050;2022-12-07T14:40:03;6.97;;;2.50;;
51184;SDS011;37248;59.350;18.050;2022-12-07T14:42:29;7.32;;;2.50;;
51184;SDS011;37248;59.350;18.050;2022-12-07T14:44:55;5.57;;;2.33;;
51184;SDS011;37248;59.350;18.050;2022-12-07T14:47:21;7.70;;;2.50;;
51184;SDS011;37248;59.350;18.050;2022-12-07T14:49:46;6.87;;;2.70;;
51184;SDS011;37248;59.350;18.050;2022-12-07T14:52:13;6.90;;;2.20;;
51184;SDS011;37248;59.350;18.050;2022-12-07T14:54:40;7.45;;;2.35;;
51184;SDS011;37248;59.350;18.050;2022-12-07T14:57:07;7.72;;;2.30;;
51184;SDS011;37248;59.350;18.050;2022-12-07T14:59:32;5.90;;;2.40;;
51184;SDS011;37248;59.350;18.050;2022-12-07T15:01:58;7.00;;;2.50;;
51184;SDS011;37248;59.350;18.050;2022-12-07T15:04:23;5.30;;;2.00;;
51184;SDS011;37248;59.350;18.050;2022-12-07T15:07:09;5.47;;;2.00;;
51184;SDS011;37248;59.350;18.050;2022-12-07T15:09:35;5.45;;;1.95;;
51184;SDS011;37248;59.350;18.050;2022-12-07T15:12:00;5.50;;;2.27;;
51184;SDS011;37248;59.350;18.050;2022-12-07T15:14:26;5.87;;;1.80;;
51184;SDS011;37248;59.350;18.050;2022-12-07T15:16:51;8.37;;;2.27;;
51184;SDS011;37248;59.350;18.050;2022-12-07T15:19:17;6.20;;;1.77;;
51184;SDS011;37248;59.350;18.050;2022-12-07T15:21:43;6.28;;;1.98;;
51184;SDS011;37248;59.350;18.050;2022-12-07T15:24:09;7.77;;;2.37;;
51184;SDS011;37248;59.350;18.050;2022-12-07T15:26:35;6.80;;;2.40;;
51184;SDS011;37248;59.350;18.050;2022-12-07T15:29:00;7.87;;;2.30;;
51184;SDS011;37248;59.350;18.050;2022-12-07T15:31:25;4.35;;;1.98;;
51184;SDS011;37248;59.350;18.050;2022-12-07T15:33:51;5.67;;;2.10;;
51184;SDS011;37248;59.350;18.050;2022-12-07T15:36:18;5.95;;;2.28;;
51184;SDS011;37248;59.350;18.050;2022-12-07T15:38:43;6.03;;;2.20;;
51184;SDS011;37248;59.350;18.050;2022-12-07T15:41:09;4.80;;;2.23;;
51184;SDS011;37248;59.350;18.050;2022-12-07T15:43:35;6.23;;;2.33;;
51184;SDS011;37248;59.350;18.050;2022-12-07T15:46:19;6.43;;;2.35;;
51184;SDS011;37248;59.350;18.050;2022-12-07T15:48:45;3.60;;;2.47;;
51184;SDS011;37248;59.350;18.050;2022-12-07T15:51:10;3.92;;;2.08;;
51184;SDS011;37248;59.350;18.050;2022-12-07T15:53:35;6.67;;;2.40;;
51184;SDS011;37248;59.350;18.050;2022-12-07T15:56:01;13.47;;;3.07;;
51184;SDS011;37248;59.350;18.050;2022-12-07T15:58:30;9.87;;;3.10;;
51184;SDS011;37248;59.350;18.050;2022-12-07T16:00:55;9.13;;;2.63;;
51184;SDS011;37248;59.350;18.050;2022-12-07T16:03:21;9.67;;;2.97;;
51184;SDS011;37248;59.350;18.050;2022-12-07T16:05:50;8.23;;;3.00;;
51184;SDS011;37248;59.350;18.050;2022-12-07T16:08:15;8.75;;;2.60;;
51184;SDS011;37248;59.350;18.050;2022-12-07T16:10:40;8.60;;;3.20;;
51184;SDS011;37248;59.350;18.050;2022-12-07T16:13:08;8.55;;;2.80;;
51184;SDS011;37248;59.350;18.050;2022-12-07T16:15:37;7.78;;;2.78;;
51184;SDS011;37248;59.350;18.050;2022-12-07T16:18:02;6.03;;;2.88;;
51184;SDS011;37248;59.350;18.050;2022-12-07T16:20:27;9.00;;;3.10;;
51184;SDS011;37248;59.350;18.050;2022-12-07T16:22:53;7.63;;;3.10;;
51184;SDS011;37248;59.350;18.050;2022-12-07T16:25:18;8.73;;;3.17;;
51184;SDS011;37248;59.350;18.050;2022-12-07T16:27:43;12.20;;;3.30;;